createdAt,value
2019-02-27T00:00:16.149Z,1.50
2019-02-27T00:02:44.424Z,1.27
2019-02-27T00:05:12.656Z,1.07
2019-02-27T00:07:40.897Z,1.27
2019-02-27T00:10:09.122Z,1.23
2019-02-27T00:12:37.361Z,1.23
2019-02-27T00:15:06.386Z,1.20
2019-02-27T00:17:34.840Z,1.27
2019-02-27T00:20:06.085Z,1.20
2019-02-27T00:22:34.515Z,0.90
2019-02-27T00:25:04.006Z,1.10
2019-02-27T00:27:32.614Z,1.00
2019-02-27T00:30:04.640Z,1.00
2019-02-27T00:32:31.273Z,1.27
2019-02-27T00:34:59.778Z,1.10
2019-02-27T00:37:28.474Z,1.20
2019-02-27T00:39:57.209Z,1.10
2019-02-27T00:42:33.269Z,1.00
2019-02-27T00:44:55.928Z,1.00
2019-02-27T00:47:24.408Z,1.30
2019-02-27T00:49:52.968Z,1.07
2019-02-27T00:52:21.455Z,1.17
2019-02-27T00:54:49.916Z,1.40
2019-02-27T00:57:20.839Z,1.90
2019-02-27T00:59:48.701Z,1.17
2019-02-27T01:02:20.009Z,1.37
2019-02-27T01:04:47.479Z,1.30
2019-02-27T01:07:20.187Z,1.30
2019-02-27T01:09:47.140Z,1.13
2019-02-27T01:12:15.705Z,1.27
2019-02-27T01:14:44.191Z,1.30
2019-02-27T01:17:12.660Z,1.10
2019-02-27T01:19:42.885Z,1.10
2019-02-27T01:22:11.416Z,1.30
2019-02-27T01:24:39.912Z,1.10
2019-02-27T01:27:10.189Z,1.00
2019-02-27T01:29:38.764Z,1.47
2019-02-27T01:32:07.231Z,1.30
2019-02-27T01:34:35.730Z,1.10
2019-02-27T01:37:04.191Z,1.20
2019-02-27T01:39:32.708Z,1.10
2019-02-27T01:42:01.181Z,1.20
2019-02-27T01:44:29.684Z,1.40
2019-02-27T01:47:01.836Z,1.23
2019-02-27T01:49:28.312Z,1.10
2019-02-27T01:51:59.186Z,1.37
2019-02-27T01:54:26.960Z,1.60
2019-02-27T01:56:55.431Z,1.40
2019-02-27T01:59:23.902Z,1.20
2019-02-27T02:01:52.459Z,1.30
2019-02-27T02:04:20.986Z,1.20
2019-02-27T02:06:49.477Z,1.50
2019-02-27T02:09:33.274Z,1.30
2019-02-27T02:12:08.681Z,1.30
2019-02-27T02:14:54.124Z,1.27
2019-02-27T02:17:49.037Z,1.10
2019-02-27T02:20:44.729Z,1.47
2019-02-27T02:23:36.402Z,1.30
2019-02-27T02:26:08.146Z,1.20
2019-02-27T02:29:04.903Z,0.93
2019-02-27T02:31:40.758Z,1.30
2019-02-27T02:34:24.791Z,1.00
2019-02-27T02:37:09.763Z,1.30
2019-02-27T02:39:56.460Z,1.20
2019-02-27T02:42:28.245Z,1.27
2019-02-27T02:45:32.762Z,1.10
2019-02-27T02:48:20.814Z,1.17
2019-02-27T02:50:54.309Z,0.90
2019-02-27T02:53:28.623Z,1.20
2019-02-27T02:56:00.348Z,1.20
2019-02-27T02:58:47.169Z,1.20
2019-02-27T03:01:19.755Z,1.20
2019-02-27T03:04:00.389Z,1.20
2019-02-27T03:06:44.125Z,1.03
2019-02-27T03:09:21.385Z,0.87
2019-02-27T03:11:58.700Z,0.97
2019-02-27T03:14:53.089Z,1.20
2019-02-27T03:17:28.818Z,0.93
2019-02-27T03:20:06.681Z,1.10
2019-02-27T03:22:41.853Z,0.97
2019-02-27T03:25:40.705Z,0.93
2019-02-27T03:28:40.992Z,0.80
2019-02-27T03:31:22.267Z,1.40
2019-02-27T03:34:15.150Z,1.07
2019-02-27T03:37:13.507Z,1.20
2019-02-27T03:39:59.973Z,1.00
2019-02-27T03:42:49.194Z,1.03
2019-02-27T03:45:30.992Z,1.10
2019-02-27T03:48:08.751Z,0.70
2019-02-27T03:50:50.752Z,0.93
2019-02-27T03:53:39.382Z,0.80
2019-02-27T03:56:30.835Z,1.20
2019-02-27T03:59:17.329Z,1.13
2019-02-27T04:02:05.813Z,1.20
2019-02-27T04:05:05.181Z,1.20
2019-02-27T04:08:08.982Z,0.80
2019-02-27T04:10:37.718Z,1.00
2019-02-27T04:13:06.228Z,1.27
2019-02-27T04:15:34.794Z,1.03
2019-02-27T04:18:02.409Z,1.00
2019-02-27T04:20:30.905Z,1.20
2019-02-27T04:22:59.462Z,1.17
2019-02-27T04:25:31.103Z,1.20
2019-02-27T04:27:58.101Z,0.80
2019-02-27T04:30:26.626Z,0.90
2019-02-27T04:32:55.072Z,1.10
2019-02-27T04:35:24.001Z,0.90
2019-02-27T04:37:54.293Z,0.90
2019-02-27T04:40:22.749Z,0.97
2019-02-27T04:42:51.260Z,0.87
2019-02-27T04:45:19.724Z,1.07
2019-02-27T04:47:48.258Z,1.00
2019-02-27T04:50:16.790Z,0.97
2019-02-27T04:52:45.387Z,0.90
2019-02-27T04:55:15.759Z,0.80
2019-02-27T04:57:44.064Z,1.00
2019-02-27T05:00:12.606Z,1.10
2019-02-27T05:02:41.102Z,0.90
2019-02-27T05:05:09.657Z,1.10
2019-02-27T05:07:38.285Z,1.00
2019-02-27T05:10:09.143Z,0.93
2019-02-27T05:12:37.628Z,1.00
2019-02-27T05:15:08.397Z,1.30
2019-02-27T05:17:36.937Z,1.20
2019-02-27T05:20:11.466Z,0.87
2019-02-27T05:22:38.208Z,1.30
2019-02-27T05:25:06.782Z,1.40
2019-02-27T05:27:35.273Z,1.70
2019-02-27T05:30:04.976Z,1.47
2019-02-27T05:32:33.428Z,1.60
2019-02-27T05:35:01.912Z,1.27
2019-02-27T05:37:30.393Z,1.30
2019-02-27T05:39:58.960Z,1.47
2019-02-27T05:42:27.430Z,1.20
2019-02-27T05:44:56.756Z,1.10
2019-02-27T05:47:25.406Z,1.20
2019-02-27T05:49:53.897Z,1.40
2019-02-27T05:52:22.374Z,1.33
2019-02-27T05:54:50.948Z,1.20
2019-02-27T05:57:21.021Z,1.00
2019-02-27T05:59:49.543Z,1.20
2019-02-27T06:02:18.032Z,1.40
2019-02-27T06:04:46.640Z,1.00
2019-02-27T06:07:18.648Z,1.17
2019-02-27T06:09:45.333Z,2.13
2019-02-27T06:12:13.979Z,2.13
2019-02-27T06:14:42.460Z,1.63
2019-02-27T06:17:12.794Z,1.63
2019-02-27T06:19:41.339Z,1.70
2019-02-27T06:22:10.026Z,1.60
2019-02-27T06:24:38.714Z,1.50
2019-02-27T06:27:07.336Z,1.70
2019-02-27T06:29:35.938Z,1.70
2019-02-27T06:32:04.459Z,1.40
2019-02-27T06:34:33.005Z,1.60
2019-02-27T06:37:01.513Z,1.60
2019-02-27T06:39:34.104Z,1.67
2019-02-27T06:42:00.185Z,1.50
2019-02-27T06:44:28.772Z,1.37
2019-02-27T06:46:57.310Z,1.40
2019-02-27T06:49:26.377Z,1.43
2019-02-27T06:51:54.846Z,1.37
2019-02-27T06:54:23.430Z,1.30
2019-02-27T06:56:51.907Z,1.60
2019-02-27T06:59:24.843Z,1.27
2019-02-27T07:01:50.737Z,1.40
2019-02-27T07:04:19.385Z,1.33
2019-02-27T07:06:47.953Z,1.10
2019-02-27T07:09:16.502Z,1.20
2019-02-27T07:11:47.176Z,1.30
2019-02-27T07:14:15.292Z,1.47
2019-02-27T07:16:43.960Z,1.30
2019-02-27T07:19:13.229Z,1.60
2019-02-27T07:21:42.592Z,1.10
2019-02-27T07:24:11.160Z,1.30
2019-02-27T07:26:39.709Z,1.70
2019-02-27T07:29:08.325Z,1.40
2019-02-27T07:31:37.001Z,1.40
2019-02-27T07:34:05.487Z,1.50
2019-02-27T07:36:36.018Z,1.40
2019-02-27T07:39:05.412Z,1.33
2019-02-27T07:41:33.974Z,1.43
2019-02-27T07:44:02.516Z,1.60
2019-02-27T07:46:31.096Z,1.07
2019-02-27T07:49:01.471Z,1.27
2019-02-27T07:51:29.846Z,1.20
2019-02-27T07:53:58.488Z,1.10
2019-02-27T07:56:27.038Z,1.30
2019-02-27T07:58:55.533Z,1.33
2019-02-27T08:04:22.963Z,1.30
2019-02-27T08:06:51.793Z,1.40
2019-02-27T08:09:20.341Z,1.33
2019-02-27T08:11:49.414Z,1.27
2019-02-27T08:14:17.896Z,1.40
2019-02-27T08:16:47.991Z,1.47
2019-02-27T08:19:16.928Z,1.47
2019-02-27T08:21:45.434Z,1.30
2019-02-27T08:24:14.484Z,1.30
2019-02-27T08:26:43.352Z,1.20
2019-02-27T08:29:11.815Z,1.17
2019-02-27T08:31:40.329Z,1.30
2019-02-27T08:34:08.891Z,1.50
2019-02-27T08:36:37.505Z,1.27
2019-02-27T08:39:06.148Z,1.43
2019-02-27T08:41:34.876Z,1.13
2019-02-27T08:44:03.431Z,1.40
2019-02-27T08:46:34.019Z,1.30
2019-02-27T08:49:02.032Z,1.20
2019-02-27T08:51:30.601Z,1.53
2019-02-27T08:53:59.858Z,1.37
2019-02-27T08:56:30.034Z,1.40
2019-02-27T08:58:58.818Z,1.23
2019-02-27T09:01:27.418Z,1.47
2019-02-27T09:03:55.917Z,1.30
2019-02-27T09:06:27.305Z,1.13
2019-02-27T09:08:54.235Z,1.30
2019-02-27T09:11:22.539Z,1.40
2019-02-27T09:13:50.814Z,1.20
2019-02-27T09:16:19.152Z,1.40
2019-02-27T09:18:47.714Z,1.50
2019-02-27T09:21:17.244Z,1.50
2019-02-27T09:23:46.027Z,1.10
2019-02-27T09:26:14.625Z,1.40
2019-02-27T09:28:44.481Z,1.50
2019-02-27T09:31:13.337Z,2.70
2019-02-27T09:33:41.876Z,6.83
2019-02-27T09:36:10.995Z,6.47
2019-02-27T09:38:39.637Z,5.67
2019-02-27T09:41:12.238Z,6.20
2019-02-27T09:43:38.138Z,5.73
2019-02-27T09:46:06.433Z,5.30
2019-02-27T09:48:36.499Z,5.13
2019-02-27T09:51:04.821Z,5.73
2019-02-27T09:53:33.978Z,5.27
2019-02-27T09:56:04.078Z,4.90
2019-02-27T09:58:32.413Z,5.07
2019-02-27T10:01:03.140Z,4.90
2019-02-27T10:03:32.898Z,5.07
2019-02-27T10:06:01.946Z,4.40
2019-02-27T10:08:33.718Z,4.20
2019-02-27T10:11:02.403Z,4.13
2019-02-27T10:13:31.084Z,4.17
2019-02-27T10:16:01.311Z,4.30
2019-02-27T10:18:30.709Z,3.43
2019-02-27T10:21:00.173Z,4.10
2019-02-27T10:23:31.154Z,3.63
2019-02-27T10:25:58.455Z,4.00
2019-02-27T10:28:26.739Z,3.90
2019-02-27T10:30:55.052Z,3.57
2019-02-27T10:33:23.432Z,3.60
2019-02-27T10:35:51.848Z,3.63
2019-02-27T10:38:20.503Z,3.90
2019-02-27T10:40:48.889Z,3.83
2019-02-27T10:43:17.250Z,3.30
2019-02-27T10:45:48.234Z,3.60
2019-02-27T10:48:15.869Z,3.50
2019-02-27T10:50:44.158Z,3.57
2019-02-27T10:53:12.502Z,3.00
2019-02-27T10:55:40.788Z,3.17
2019-02-27T10:58:12.825Z,2.93
2019-02-27T11:00:39.195Z,3.00
2019-02-27T11:03:07.669Z,3.20
2019-02-27T11:05:39.233Z,3.00
2019-02-27T11:08:07.610Z,3.13
2019-02-27T11:10:36.185Z,2.83
2019-02-27T11:13:06.808Z,2.90
2019-02-27T11:15:34.567Z,2.70
2019-02-27T11:18:05.432Z,2.70
2019-02-27T11:20:34.419Z,2.80
2019-02-27T11:23:06.609Z,2.60
2019-02-27T11:25:33.326Z,3.07
2019-02-27T11:28:01.688Z,2.30
2019-02-27T11:30:35.681Z,2.73
2019-02-27T11:33:01.623Z,2.60
2019-02-27T11:35:29.851Z,2.60
2019-02-27T11:37:58.107Z,2.80
2019-02-27T11:40:27.065Z,2.60
2019-02-27T11:42:55.436Z,2.10
2019-02-27T11:45:24.828Z,2.63
2019-02-27T11:47:53.548Z,2.33
2019-02-27T11:50:21.805Z,2.50
2019-02-27T11:52:53.466Z,2.40
2019-02-27T11:55:24.256Z,2.30
2019-02-27T11:57:52.373Z,2.20
2019-02-27T12:00:23.206Z,2.30
2019-02-27T12:02:51.704Z,2.30
2019-02-27T12:05:20.044Z,2.10
2019-02-27T12:07:51.060Z,2.10
2019-02-27T12:10:19.384Z,1.93
2019-02-27T12:12:47.654Z,2.37
2019-02-27T12:15:17.278Z,1.90
2019-02-27T12:17:46.993Z,2.00
2019-02-27T12:20:18.257Z,2.00
2019-02-27T12:22:46.294Z,2.10
2019-02-27T12:25:18.489Z,2.03
2019-02-27T12:27:49.662Z,2.23
2019-02-27T12:30:25.065Z,2.30
2019-02-27T12:32:56.682Z,2.20
2019-02-27T12:35:24.373Z,1.47
2019-02-27T12:37:52.645Z,1.67
2019-02-27T12:40:24.955Z,2.13
2019-02-27T12:42:53.602Z,1.87
2019-02-27T12:45:25.749Z,2.10
2019-02-27T12:47:53.012Z,1.73
2019-02-27T12:50:22.219Z,1.87
2019-02-27T12:52:50.914Z,1.80
2019-02-27T12:55:20.422Z,1.90
2019-02-27T12:57:52.201Z,1.80
2019-02-27T13:00:23.828Z,1.80
2019-02-27T13:02:52.416Z,1.80
2019-02-27T13:05:21.409Z,1.80
2019-02-27T13:07:49.682Z,1.47
2019-02-27T13:10:20.564Z,1.90
2019-02-27T13:12:49.213Z,1.80
2019-02-27T13:15:20.149Z,1.70
2019-02-27T13:17:48.527Z,1.60
2019-02-27T13:20:18.374Z,1.83
2019-02-27T13:22:47.115Z,1.47
2019-02-27T13:25:15.499Z,2.03
2019-02-27T13:27:43.983Z,1.67
2019-02-27T13:30:16.568Z,1.57
2019-02-27T13:32:46.481Z,1.80
2019-02-27T13:35:15.167Z,1.60
2019-02-27T13:37:44.550Z,1.50
2019-02-27T13:40:14.483Z,1.57
2019-02-27T13:42:42.752Z,1.40
2019-02-27T13:45:14.591Z,1.47
2019-02-27T13:47:43.301Z,1.40
2019-02-27T13:50:11.609Z,1.50
2019-02-27T13:52:39.840Z,1.70
2019-02-27T13:55:11.167Z,1.50
2019-02-27T13:57:39.582Z,1.50
2019-02-27T14:00:20.862Z,1.50
2019-02-27T14:02:47.813Z,1.70
2019-02-27T14:05:16.094Z,1.60
2019-02-27T14:07:46.419Z,1.50
2019-02-27T14:10:17.203Z,1.53
2019-02-27T14:12:45.827Z,1.57
2019-02-27T14:15:35.090Z,1.50
2019-02-27T14:18:03.694Z,1.67
2019-02-27T14:20:31.952Z,1.90
2019-02-27T14:23:00.753Z,1.30
2019-02-27T14:25:33.405Z,1.60
2019-02-27T14:28:02.014Z,1.50
2019-02-27T14:30:36.451Z,1.50
2019-02-27T14:33:05.010Z,1.47
2019-02-27T14:35:36.289Z,1.50
2019-02-27T14:38:03.405Z,1.47
2019-02-27T14:40:31.671Z,1.60
2019-02-27T14:43:00.173Z,1.60
2019-02-27T14:45:28.442Z,1.60
2019-02-27T14:47:59.615Z,1.33
2019-02-27T14:50:26.704Z,1.43
2019-02-27T14:52:55.003Z,1.47
2019-02-27T14:55:25.306Z,1.67
2019-02-27T14:57:53.406Z,1.60
2019-02-27T15:00:26.294Z,1.63
2019-02-27T15:02:55.527Z,1.40
2019-02-27T15:05:24.578Z,1.33
2019-02-27T15:07:54.620Z,1.67
2019-02-27T15:10:23.184Z,1.60
2019-02-27T15:12:54.964Z,1.13
2019-02-27T15:15:28.955Z,1.30
2019-02-27T15:17:57.248Z,1.83
2019-02-27T15:20:26.483Z,1.87
2019-02-27T15:22:54.760Z,2.00
2019-02-27T15:25:23.108Z,1.67
2019-02-27T15:27:51.348Z,1.70
2019-02-27T15:30:21.403Z,1.60
2019-02-27T15:32:49.755Z,1.77
2019-02-27T15:35:20.850Z,1.90
2019-02-27T15:37:48.279Z,2.00
2019-02-27T15:40:19.526Z,2.10
2019-02-27T15:42:49.615Z,1.90
2019-02-27T15:45:18.817Z,1.90
2019-02-27T15:47:48.171Z,1.60
2019-02-27T15:50:22.679Z,2.03
2019-02-27T15:52:47.647Z,1.93
2019-02-27T15:55:15.913Z,1.83
2019-02-27T15:57:44.168Z,1.60
2019-02-27T16:00:22.919Z,1.90
2019-02-27T16:02:51.606Z,2.73
2019-02-27T16:05:21.725Z,2.60
2019-02-27T16:07:51.035Z,2.50
2019-02-27T16:10:21.051Z,2.03
2019-02-27T16:12:50.037Z,2.40
2019-02-27T16:15:20.289Z,2.20
2019-02-27T16:17:48.525Z,2.00
2019-02-27T16:20:18.981Z,2.50
2019-02-27T16:22:47.433Z,1.90
2019-02-27T16:25:19.643Z,2.30
2019-02-27T16:27:47.067Z,2.23
2019-02-27T16:30:22.940Z,2.03
2019-02-27T16:32:51.236Z,2.23
2019-02-27T16:35:19.871Z,1.83
2019-02-27T16:37:49.562Z,2.20
2019-02-27T16:40:19.031Z,1.80
2019-02-27T16:42:47.777Z,2.70
2019-02-27T16:45:17.179Z,2.10
2019-02-27T16:47:45.523Z,2.20
2019-02-27T16:50:15.121Z,3.07
2019-02-27T16:52:43.552Z,2.93
2019-02-27T16:55:13.559Z,2.60
2019-02-27T16:57:42.208Z,2.60
2019-02-27T17:00:12.264Z,2.60
2019-02-27T17:02:40.537Z,2.50
2019-02-27T17:05:10.065Z,2.63
2019-02-27T17:07:38.434Z,2.80
2019-02-27T17:10:08.431Z,2.70
2019-02-27T17:12:38.249Z,2.43
2019-02-27T17:15:06.754Z,3.10
2019-02-27T17:17:35.113Z,2.90
2019-02-27T17:20:04.305Z,2.80
2019-02-27T17:22:33.222Z,2.70
2019-02-27T17:25:02.505Z,2.70
2019-02-27T17:27:31.197Z,2.60
2019-02-27T17:30:00.016Z,2.63
2019-02-27T17:32:30.362Z,2.57
2019-02-27T17:34:59.132Z,2.83
2019-02-27T17:37:27.408Z,2.63
2019-02-27T17:39:55.636Z,2.50
2019-02-27T17:42:23.875Z,2.70
2019-02-27T17:44:52.137Z,2.73
2019-02-27T17:47:20.387Z,2.80
2019-02-27T17:49:48.641Z,2.60
2019-02-27T17:52:17.754Z,2.70
2019-02-27T17:54:46.012Z,2.93
2019-02-27T17:57:14.480Z,3.20
2019-02-27T17:59:43.044Z,3.13
2019-02-27T18:02:11.555Z,3.60
2019-02-27T18:04:39.838Z,2.90
2019-02-27T18:07:09.180Z,2.70
2019-02-27T18:09:38.027Z,3.23
2019-02-27T18:12:06.313Z,2.97
2019-02-27T18:14:34.681Z,3.33
2019-02-27T18:17:02.927Z,3.20
2019-02-27T18:19:31.758Z,3.03
2019-02-27T18:22:00.256Z,3.00
2019-02-27T18:24:33.315Z,2.60
2019-02-27T18:26:59.047Z,2.77
2019-02-27T18:29:27.584Z,2.87
2019-02-27T18:31:58.720Z,2.90
2019-02-27T18:34:26.235Z,3.03
2019-02-27T18:36:54.750Z,2.90
2019-02-27T18:39:23.220Z,2.87
2019-02-27T18:41:51.716Z,2.87
2019-02-27T18:44:20.309Z,3.10
2019-02-27T18:46:48.964Z,3.03
2019-02-27T18:49:18.517Z,2.90
2019-02-27T18:51:47.783Z,3.00
2019-02-27T18:54:16.378Z,3.03
2019-02-27T18:56:44.930Z,3.10
2019-02-27T18:59:13.463Z,2.73
2019-02-27T19:01:45.202Z,2.70
2019-02-27T19:04:12.172Z,2.80
2019-02-27T19:06:43.150Z,3.30
2019-02-27T19:09:10.825Z,3.00
2019-02-27T19:11:39.301Z,2.97
2019-02-27T19:14:07.824Z,2.70
2019-02-27T19:16:36.300Z,2.80
2019-02-27T19:19:04.852Z,2.93
2019-02-27T19:21:33.624Z,3.00
2019-02-27T19:24:02.346Z,2.90
2019-02-27T19:26:30.806Z,2.67
2019-02-27T19:29:00.199Z,2.90
2019-02-27T19:31:28.978Z,3.13
2019-02-27T19:33:57.469Z,2.90
2019-02-27T19:36:30.673Z,3.07
2019-02-27T19:38:59.217Z,2.70
2019-02-27T19:41:27.995Z,3.07
2019-02-27T19:43:56.688Z,2.97
2019-02-27T19:46:25.575Z,2.70
2019-02-27T19:48:55.886Z,3.00
2019-02-27T19:51:24.378Z,3.10
2019-02-27T19:53:53.190Z,2.87
2019-02-27T19:56:21.746Z,3.10
2019-02-27T19:58:51.078Z,2.93
2019-02-27T20:01:20.784Z,3.10
2019-02-27T20:03:49.468Z,3.27
2019-02-27T20:06:21.401Z,3.27
2019-02-27T20:08:49.887Z,2.90
2019-02-27T20:11:18.481Z,2.70
2019-02-27T20:13:46.961Z,2.93
2019-02-27T20:16:17.759Z,2.90
2019-02-27T20:18:54.519Z,3.03
2019-02-27T20:21:16.183Z,2.77
2019-02-27T20:23:44.717Z,2.90
2019-02-27T20:26:14.215Z,3.00
2019-02-27T20:28:43.144Z,2.80
2019-02-27T20:31:11.658Z,3.00
2019-02-27T20:33:40.166Z,3.23
2019-02-27T20:36:08.660Z,2.80
2019-02-27T20:38:37.279Z,3.23
2019-02-27T20:41:06.744Z,3.00
2019-02-27T20:43:35.585Z,3.10
2019-02-27T20:46:04.117Z,3.20
2019-02-27T20:48:35.722Z,2.93
2019-02-27T20:51:06.709Z,3.20
2019-02-27T20:53:37.341Z,2.90
2019-02-27T20:56:05.879Z,3.00
2019-02-27T20:58:34.346Z,2.80
2019-02-27T21:01:03.311Z,3.20
2019-02-27T21:03:31.776Z,2.90
2019-02-27T21:06:00.807Z,3.10
2019-02-27T21:08:29.365Z,3.23
2019-02-27T21:10:57.930Z,3.00
2019-02-27T21:13:26.394Z,3.00
2019-02-27T21:15:54.946Z,3.00
2019-02-27T21:18:23.410Z,3.40
2019-02-27T21:20:51.982Z,3.40
2019-02-27T21:23:20.456Z,3.60
2019-02-27T21:25:49.806Z,2.93
2019-02-27T21:28:21.304Z,2.90
2019-02-27T21:30:51.780Z,3.40
2019-02-27T21:33:19.044Z,3.03
2019-02-27T21:35:47.508Z,2.87
2019-02-27T21:38:16.683Z,3.10
2019-02-27T21:40:45.342Z,3.20
2019-02-27T21:43:13.838Z,3.17
2019-02-27T21:45:42.587Z,3.50
2019-02-27T21:48:11.073Z,3.30
2019-02-27T21:50:40.547Z,3.10
2019-02-27T21:53:09.201Z,3.00
2019-02-27T21:55:37.680Z,3.03
2019-02-27T21:58:06.217Z,3.13
2019-02-27T22:00:35.171Z,2.93
2019-02-27T22:03:04.965Z,3.10
2019-02-27T22:05:42.506Z,3.07
2019-02-27T22:08:05.486Z,2.90
2019-02-27T22:10:34.386Z,2.97
2019-02-27T22:13:02.944Z,2.70
2019-02-27T22:15:31.609Z,2.97
2019-02-27T22:18:00.229Z,2.93
2019-02-27T22:20:28.710Z,3.00
2019-02-27T22:22:57.224Z,3.43
2019-02-27T22:25:29.845Z,3.90
2019-02-27T22:27:58.277Z,4.03
2019-02-27T22:30:26.074Z,4.27
2019-02-27T22:32:55.058Z,4.70
2019-02-27T22:35:23.712Z,4.70
2019-02-27T22:37:52.786Z,5.00
2019-02-27T22:40:27.440Z,4.07
2019-02-27T22:42:55.898Z,5.07
2019-02-27T22:45:24.592Z,4.80
2019-02-27T22:47:53.999Z,4.80
2019-02-27T22:50:23.238Z,4.80
2019-02-27T22:52:55.342Z,4.80
2019-02-27T22:55:23.890Z,4.30
2019-02-27T22:57:54.841Z,4.43
2019-02-27T23:00:51.245Z,4.47
2019-02-27T23:03:44.546Z,4.23
2019-02-27T23:06:13.139Z,4.30
2019-02-27T23:08:41.651Z,4.10
2019-02-27T23:11:10.105Z,4.10
2019-02-27T23:13:38.606Z,4.30
2019-02-27T23:16:07.528Z,4.20
2019-02-27T23:18:37.429Z,3.93
2019-02-27T23:21:06.281Z,3.70
2019-02-27T23:23:36.737Z,4.07
2019-02-27T23:26:04.858Z,3.90
2019-02-27T23:28:34.827Z,3.90
2019-02-27T23:31:03.581Z,3.90
2019-02-27T23:33:35.839Z,3.90
2019-02-27T23:36:02.746Z,4.10
2019-02-27T23:38:31.204Z,3.93
2019-02-27T23:41:02.410Z,3.70
2019-02-27T23:43:33.920Z,4.43
2019-02-27T23:46:01.243Z,4.77
2019-02-27T23:48:29.694Z,5.13
2019-02-27T23:50:58.199Z,6.77
2019-02-27T23:53:27.168Z,7.20
2019-02-27T23:55:59.763Z,9.63
2019-02-27T23:58:29.430Z,13.40
